ADDS METAR Data INFO
IDs: Format: Raw Decoded Include TAF

Data at: 0255 UTC 17 Jan 2018

KCLT 170252Z 19005KT 10SM FEW085 BKN250 06/M03 A3029 RMK AO2 SLP261 T00561033 56003
KCLT 170152Z 17007KT 10SM OVC090 07/M03 A3030 RMK AO2 SLP262 T00671033
KCLT 170052Z 17008KT 10SM BKN095 06/M03 A3029 RMK AO2 SLP264 T00611033
KCLT 162352Z 16010KT 10SM OVC180 08/M03 A3030 RMK AO2 SLP266 T00781033 10094 20061 58008
KCLT 162252Z 19005KT 10SM OVC180 07/M04 A3031 RMK AO2 SLP270 T00671039
KCLT 162152Z 21006KT 10SM OVC250 09/M04 A3032 RMK AO2 SLP272 T00891039
KCLT 162052Z 22005KT 10SM SCT210 OVC250 09/M05 A3033 RMK AO2 SLP274 T00941050 55020
KCLT 161952Z 22008KT 10SM SCT210 OVC250 09/M05 A3032 RMK AO2 SLP272 T00941050
KCLT 161852Z 22008KT 10SM FEW220 BKN250 09/M06 A3035 RMK AO2 SLP281 T00941061
KCLT 161752Z 18008KT 10SM BKN250 08/M06 A3039 RMK AO2 SLP294 T00781061 10078 21067 58024
KCLT 161652Z 23006KT 10SM BKN250 06/M07 A3043 RMK AO2 SLP311 T00611072
KCLT 161552Z 19007KT 10SM SCT250 04/M08 A3047 RMK AO2 SLP323 T00391078
KCLT 161452Z 17006KT 10SM SCT250 03/M08 A3046 RMK AO2 SLP320 T00281078 53014
KCLT 161352Z 15005KT 10SM FEW250 M01/M08 A3044 RMK AO2 SLP314 T10061083
KCLT 161252Z 00000KT 10SM FEW250 M05/M09 A3043 RMK AO2 SLP313 T10501089
KCLT 161152Z 15003KT 10SM CLR M04/M09 A3042 RMK AO2 SLP308 T10391089 11028 21078 55002
KCLT 161052Z 00000KT 10SM CLR M06/M08 A3041 RMK AO2 SLP306 T10611083
KCLT 160952Z 00000KT 10SM CLR M05/M08 A3042 RMK AO2 SLP305 T10501083
KCLT 160852Z 35003KT 10SM CLR M06/M09 A3043 RMK AO2 SLP310 T10611089 58001
KCLT 160752Z 30004KT 10SM CLR M04/M08 A3044 RMK AO2 SLP312 T10441078
KCLT 160652Z 00000KT 10SM CLR M05/M09 A3044 RMK AO2 SLP313 T10501089
KCLT 160552Z 00000KT 10SM CLR M03/M09 A3043 RMK AO2 SLP310 T10281094 10017 21050 58006
KCLT 160452Z 00000KT 10SM FEW250 M03/M08 A3045 RMK AO2 SLP319 T10281083 400441083
KCLT 160352Z 00000KT 10SM FEW250 M03/M09 A3046 RMK AO2 SLP322 T10281094
KCLT 160252Z 14003KT 10SM FEW250 M01/M11 A3045 RMK AO2 SLP319 T10061111 53003
KCLT 160152Z 08004KT 10SM FEW250 01/M11 A3044 RMK AO2 SLP315 T00061111
KCLT 160052Z 07005KT 10SM FEW250 M01/M11 A3044 RMK AO2 SLP315 T10061106
KCLT 152352Z 00000KT 10SM FEW250 01/M11 A3044 RMK AO2 SLP315 T00061106 10044 21028 53006
KCLT 152252Z 00000KT 10SM FEW250 02/M11 A3042 RMK AO2 SLP309 T00171111
KCLT 152152Z 00000KT 10SM FEW250 04/M12 A3041 RMK AO2 SLP304 T00391117
KCLT 152052Z 30003KT 10SM FEW250 04/M12 A3042 RMK AO2 SLP308 T00391122 56016
KCLT 151952Z 29005KT 10SM CLR 03/M12 A3043 RMK AO2 SLP309 T00331122
KCLT 151852Z 00000KT 10SM CLR 02/M13 A3043 RMK AO2 SLP311 T00221128
KCLT 151752Z VRB03KT 10SM CLR 01/M14 A3047 RMK AO2 SLP324 T00111139 10017 21078 58027
KCLT 151652Z 00000KT 10SM CLR 00/M14 A3052 RMK AO2 SLP343 T00001144
KCLT 151552Z 03007KT 10SM CLR M02/M16 A3054 RMK AO2 SLP351 T10171156